createdAt,value
2023-01-22T00:02:15.998Z,4.00
2023-01-22T00:08:18.388Z,4.24
2023-01-22T00:14:20.895Z,4.28
2023-01-22T00:20:27.317Z,4.28
2023-01-22T00:26:30.797Z,3.93
2023-01-22T00:32:37.269Z,4.50
2023-01-22T00:38:40.730Z,4.07
2023-01-22T00:44:43.179Z,3.90
2023-01-22T00:50:47.584Z,4.33
2023-01-22T00:56:50.119Z,4.47
2023-01-22T01:03:14.178Z,3.73
2023-01-22T01:09:17.122Z,3.41
2023-01-22T01:15:19.592Z,3.82
2023-01-22T01:21:22.133Z,3.44
2023-01-22T01:27:24.525Z,3.56
2023-01-22T01:33:26.992Z,3.62
2023-01-22T01:39:29.482Z,2.85
2023-01-22T01:45:33.931Z,4.02
2023-01-22T01:51:37.431Z,4.11
2023-01-22T01:57:41.902Z,3.61
2023-01-22T02:03:47.359Z,4.29
2023-01-22T02:09:49.822Z,3.37
2023-01-22T02:15:55.270Z,3.68
2023-01-22T02:21:57.768Z,4.19
2023-01-22T02:28:00.233Z,4.11
2023-01-22T02:34:02.723Z,4.51
2023-01-22T02:40:06.138Z,4.56
2023-01-22T02:46:08.636Z,4.35
2023-01-22T02:52:11.088Z,4.53
2023-01-22T02:58:14.535Z,4.56
2023-01-22T03:04:16.976Z,4.28
2023-01-22T03:10:23.170Z,4.04
2023-01-22T03:16:44.052Z,4.23
2023-01-22T03:22:46.448Z,4.25
2023-01-22T03:28:50.268Z,4.36
2023-01-22T03:34:54.399Z,4.11
2023-01-22T03:41:17.793Z,3.60
2023-01-22T03:47:20.416Z,4.15
2023-01-22T03:53:22.936Z,4.05
2023-01-22T03:59:24.828Z,4.31
2023-01-22T04:05:26.795Z,4.47
2023-01-22T04:11:29.239Z,4.53
2023-01-22T04:17:31.728Z,4.09
2023-01-22T04:23:37.064Z,4.24
2023-01-22T04:29:39.665Z,4.09
2023-01-22T04:35:45.032Z,4.18
2023-01-22T04:41:53.651Z,4.07
2023-01-22T04:47:56.120Z,4.07
2023-01-22T04:53:58.605Z,3.96
2023-01-22T05:00:01.075Z,3.89
2023-01-22T05:06:05.533Z,3.77
2023-01-22T05:12:08.023Z,3.86
2023-01-22T05:18:10.471Z,4.02
2023-01-22T05:24:13.127Z,4.20
2023-01-22T05:30:16.529Z,3.88
2023-01-22T05:36:18.904Z,3.82
2023-01-22T05:42:22.354Z,3.90
2023-01-22T05:48:24.776Z,3.79
2023-01-22T05:54:31.521Z,4.10
2023-01-22T06:00:33.784Z,4.27
2023-01-22T06:06:39.252Z,4.40
2023-01-22T06:12:41.732Z,4.17
2023-01-22T06:18:44.342Z,3.89
2023-01-22T06:24:48.644Z,3.27
2023-01-22T06:30:52.264Z,3.58
2023-01-22T06:37:03.346Z,4.26
2023-01-22T06:43:10.759Z,4.14
2023-01-22T06:49:13.543Z,3.66
2023-01-22T06:55:15.768Z,3.81
2023-01-22T07:01:18.538Z,4.17
2023-01-22T07:07:20.936Z,4.19
2023-01-22T07:13:24.601Z,4.04
2023-01-22T07:19:26.892Z,4.00
2023-01-22T07:25:32.379Z,4.43
2023-01-22T07:31:34.945Z,4.27
2023-01-22T07:37:37.261Z,4.37
2023-01-22T07:43:39.757Z,4.12
2023-01-22T07:49:42.200Z,4.18
2023-01-22T07:55:47.650Z,4.49
2023-01-22T08:01:50.135Z,4.24
2023-01-22T08:07:54.578Z,4.45
2023-01-22T08:13:59.108Z,4.47
2023-01-22T08:20:01.572Z,4.56
2023-01-22T08:26:06.725Z,4.41
2023-01-22T08:32:09.570Z,4.48
2023-01-22T08:38:11.919Z,4.51
2023-01-22T08:44:15.413Z,4.47
2023-01-22T08:50:19.880Z,4.72
2023-01-22T08:56:22.313Z,4.65
2023-01-22T09:02:24.817Z,4.61
2023-01-22T09:08:30.261Z,4.54
2023-01-22T09:14:33.706Z,4.23
2023-01-22T09:20:36.161Z,4.91
2023-01-22T09:26:38.635Z,5.03
2023-01-22T09:32:42.082Z,4.24
2023-01-22T09:38:48.578Z,5.25
2023-01-22T09:45:00.054Z,4.93
2023-01-22T09:51:02.540Z,5.15
2023-01-22T09:57:13.010Z,5.38
2023-01-22T10:03:25.902Z,5.51
2023-01-22T10:09:32.017Z,5.64
2023-01-22T10:15:34.463Z,5.58
2023-01-22T10:21:47.012Z,5.88
2023-01-22T10:27:59.488Z,5.42
2023-01-22T10:34:11.029Z,5.95
2023-01-22T10:40:42.575Z,5.96
2023-01-22T10:46:47.039Z,6.04
2023-01-22T10:52:59.536Z,6.00
2023-01-22T10:59:21.133Z,6.10
2023-01-22T11:05:40.636Z,6.13
2023-01-22T11:11:49.131Z,6.13
2023-01-22T11:17:55.627Z,6.12
2023-01-22T11:24:19.177Z,6.35
2023-01-22T11:30:24.404Z,6.39
2023-01-22T11:36:41.172Z,6.43
2023-01-22T11:43:21.023Z,6.54
2023-01-22T11:50:01.401Z,6.67
2023-01-22T11:56:13.770Z,6.80
2023-01-22T12:02:34.483Z,6.93
2023-01-22T12:08:52.977Z,7.03
2023-01-22T12:15:19.545Z,7.05
2023-01-22T12:21:44.089Z,7.04
2023-01-22T12:28:00.568Z,7.09
2023-01-22T12:34:11.064Z,7.08
2023-01-22T12:40:28.586Z,7.16
2023-01-22T12:46:49.162Z,7.24
2023-01-22T12:53:05.655Z,6.84
2023-01-22T12:59:30.193Z,6.86
2023-01-22T13:05:32.631Z,7.42
2023-01-22T13:11:40.124Z,7.22
2023-01-22T13:17:42.591Z,7.31
2023-01-22T13:23:51.081Z,7.47
2023-01-22T13:29:53.534Z,7.51
2023-01-22T13:35:58.744Z,7.54
2023-01-22T13:42:04.487Z,7.57
2023-01-22T13:48:08.984Z,6.85
2023-01-22T13:54:20.434Z,7.72
2023-01-22T14:00:35.022Z,7.54
2023-01-22T14:06:54.457Z,7.79
2023-01-22T14:13:02.952Z,7.65
2023-01-22T14:19:05.434Z,7.80
2023-01-22T14:25:09.926Z,7.88
2023-01-22T14:31:14.839Z,7.86
2023-01-22T14:37:21.293Z,7.76
2023-01-22T14:43:24.325Z,7.68
2023-01-22T14:49:26.771Z,7.81
2023-01-22T14:55:29.245Z,7.40
2023-01-22T15:01:31.754Z,7.59
2023-01-22T15:07:39.082Z,7.68
2023-01-22T15:13:43.639Z,7.74
2023-01-22T15:19:46.086Z,7.55
2023-01-22T15:26:03.625Z,7.27
2023-01-22T15:32:06.067Z,7.13
2023-01-22T15:38:09.733Z,6.98
2023-01-22T15:44:14.995Z,6.85
2023-01-22T15:50:20.752Z,6.65
2023-01-22T15:56:28.933Z,6.50
2023-01-22T16:02:31.453Z,5.98
2023-01-22T16:08:34.844Z,6.19
2023-01-22T16:14:37.301Z,5.92
2023-01-22T16:20:39.753Z,5.97
2023-01-22T16:26:42.216Z,5.84
2023-01-22T16:32:46.719Z,5.78
2023-01-22T16:38:51.201Z,5.21
2023-01-22T16:44:53.631Z,5.17
2023-01-22T16:50:56.109Z,5.51
2023-01-22T16:57:01.593Z,5.44
2023-01-22T17:03:04.055Z,5.09
2023-01-22T17:09:07.578Z,5.38
2023-01-22T17:15:13.039Z,5.41
2023-01-22T17:21:19.495Z,4.97
2023-01-22T17:27:21.997Z,5.15
2023-01-22T17:33:25.469Z,4.81
2023-01-22T17:39:31.878Z,5.17
2023-01-22T17:45:36.141Z,4.71
2023-01-22T17:51:40.968Z,5.02
2023-01-22T17:57:43.328Z,4.61
2023-01-22T18:03:46.824Z,4.63
2023-01-22T18:09:49.283Z,4.77
2023-01-22T18:15:52.839Z,4.88
2023-01-22T18:21:58.440Z,4.77
2023-01-22T18:28:03.694Z,4.71
2023-01-22T18:34:08.188Z,5.06
2023-01-22T18:40:13.613Z,4.98
2023-01-22T18:46:17.239Z,4.52
2023-01-22T18:52:21.742Z,4.92
2023-01-22T18:58:37.085Z,4.98
2023-01-22T19:04:42.527Z,4.99
2023-01-22T19:10:46.044Z,5.06
2023-01-22T19:16:52.542Z,4.85
2023-01-22T19:22:54.958Z,4.84
2023-01-22T19:29:01.173Z,4.91
2023-01-22T19:35:03.932Z,4.88
2023-01-22T19:41:07.371Z,4.25
2023-01-22T19:47:11.833Z,4.91
2023-01-22T19:53:14.290Z,4.79
2023-01-22T19:59:21.802Z,4.85
2023-01-22T20:05:25.229Z,4.85
2023-01-22T20:11:27.683Z,4.78
2023-01-22T20:17:30.180Z,4.07
2023-01-22T20:23:32.609Z,4.87
2023-01-22T20:29:38.097Z,4.89
2023-01-22T20:35:43.543Z,4.90
2023-01-22T20:41:47.040Z,4.24
2023-01-22T20:47:49.482Z,4.90
2023-01-22T20:53:52.993Z,4.49
2023-01-22T21:00:00.488Z,4.72
2023-01-22T21:06:04.952Z,4.68
2023-01-22T21:12:08.434Z,4.66
2023-01-22T21:18:13.387Z,4.41
2023-01-22T21:24:16.347Z,3.70
2023-01-22T21:30:19.021Z,4.40
2023-01-22T21:36:23.261Z,4.52
2023-01-22T21:42:44.803Z,4.39
2023-01-22T21:48:47.239Z,4.34
2023-01-22T21:54:50.833Z,4.28
2023-01-22T22:00:55.270Z,4.29
2023-01-22T22:06:59.695Z,4.10
2023-01-22T22:13:02.182Z,4.00
2023-01-22T22:19:04.363Z,2.92
2023-01-22T22:25:07.149Z,3.61
2023-01-22T22:31:12.624Z,3.73
2023-01-22T22:37:15.116Z,3.65
2023-01-22T22:43:17.589Z,3.77
2023-01-22T22:49:20.074Z,3.62
2023-01-22T22:55:22.577Z,2.54
2023-01-22T23:01:26.999Z,2.83
2023-01-22T23:07:29.449Z,3.30
2023-01-22T23:13:31.934Z,3.33
2023-01-22T23:19:34.373Z,3.10
2023-01-22T23:25:36.804Z,3.03
2023-01-22T23:31:40.361Z,3.13
2023-01-22T23:37:45.229Z,2.65
2023-01-22T23:43:48.198Z,3.08
2023-01-22T23:49:50.690Z,2.94
2023-01-22T23:56:02.172Z,2.80
